Edmonton International Airport (YEG/CYEG)




Flight Aircraft Arriving
GRZ5125 B738
B722
PANC - Ted Stevens Anchorage International Airport
United StatesAlaska Anchorage, Alaska
GRZ5285 B738
B722
KDEN - Denver International Airport
United StatesColorado Denver, Colorado
Flight Aircraft Departing
GRZ5126 B738
B722
PANC - Ted Stevens Anchorage International Airport
United StatesAlaska Anchorage, Alaska
GRZ5288 B738
B722
KDEN - Denver International Airport
United StatesColorado Denver, Colorado
Airport Information
Location: Edmonton, CA
Coordinates: 53.31 / -113.579
Elevation:
Time Offset:
Local Time:
UTC Time:
Jet A Price: $0.21/lbs

Current Weather
METAR:
Warning: file_get_contents(https://api.aviationapi.com/v1/weather/metar?apt=CYEG): failed to open stream: HTTP request failed! HTTP/1.1 500 Internal Server Error in /var/www/capitollogistics/lib/skins/urban/hub/aptview.php on line 198
TAF: TAF CYEG 051138Z 0512/0612 17005KT P6SM FEW140 SCT250 BECMG 0521/0523 17012KT BECMG 0603/0605 18005KT RMK NXT FCST BY 051500Z

Recent Arrivals
Date Flight Type Depart
12/23/2019 GRZ5288 B738 Denver International Airport (KDEN)
09/24/2019 GRZ524 B738 Denver International Airport (KDEN)
Recent Departures
Date Flight Type Arrive
12/30/2019 GRZ5125 B738 Ted Stevens Anchorage International Airport (PANC)